Time;durP1;ratioP1;P1;durP2;ratioP2;P2;SDS_P1;SDS_P2;PMS_P1;PMS_P2;Temp;Humidity;BMP_temperature;BMP_pressure;BME280_temperature;BME280_humidity;BME280_pressure;Samples;Min_cycle;Max_cycle;Signal;HPM_P1;HPM_P2
2023/09/19 00:00:48;;;;;;;5.80;5.30;;;;;;;22.95;53.27;102105.10;106750;1257;22527;-57
2023/09/19 00:03:16;;;;;;;5.80;5.30;;;;;;;22.97;53.20;102100.92;106593;1256;22538;-57
2023/09/19 00:05:45;;;;;;;5.50;5.10;;;;;;;22.98;53.20;102098.05;106712;1255;22564;-57
2023/09/19 00:08:13;;;;;;;5.00;4.60;;;;;;;22.96;53.38;102099.25;106792;1258;22525;-57
2023/09/19 00:10:41;;;;;;;5.60;5.10;;;;;;;22.88;53.53;102096.27;106761;1258;22539;-57
2023/09/19 00:13:13;;;;;;;5.50;4.90;;;;;;;22.98;53.22;102097.71;106813;1269;22523;-57
2023/09/19 00:15:50;;;;;;;5.90;5.40;;;;;;;22.99;53.08;102094.48;106820;1258;22544;-57
2023/09/19 00:18:20;;;;;;;7.10;5.90;;;;;;;22.99;53.14;102089.52;106479;1274;25364;-57
2023/09/19 00:20:49;;;;;;;5.60;5.10;;;;;;;22.89;53.61;102090.41;106467;1274;22529;-57
2023/09/19 00:23:19;;;;;;;6.10;5.50;;;;;;;22.95;53.43;102090.42;106771;1269;22538;-57
2023/09/19 00:25:48;;;;;;;6.10;5.60;;;;;;;22.90;53.52;102090.86;106824;1252;22553;-57
2023/09/19 00:28:17;;;;;;;5.60;5.10;;;;;;;22.79;53.82;102086.86;106783;1256;22526;-57
2023/09/19 00:30:49;;;;;;;6.20;5.70;;;;;;;22.76;54.09;102082.91;106774;1256;22528;-57
2023/09/19 00:33:19;;;;;;;6.20;5.70;;;;;;;22.76;54.20;102077.08;106825;1269;22565;-57
2023/09/19 00:35:48;;;;;;;5.80;5.30;;;;;;;22.76;54.49;102079.38;106843;1256;22539;-57
2023/09/19 00:38:17;;;;;;;6.70;5.80;;;;;;;22.75;54.55;102075.36;106763;1256;22543;-57
2023/09/19 00:40:45;;;;;;;5.20;4.80;;;;;;;22.76;54.60;102077.11;106783;1256;22621;-57
2023/09/19 00:43:13;;;;;;;5.40;5.00;;;;;;;22.74;54.47;102072.59;106576;1259;22526;-57
2023/09/19 00:45:46;;;;;;;5.30;4.80;;;;;;;22.73;54.28;102076.19;106659;1255;24197;-58
2023/09/19 00:48:15;;;;;;;8.00;5.50;;;;;;;22.85;54.06;102068.81;106748;1258;22526;-56
2023/09/19 00:50:43;;;;;;;5.80;5.30;;;;;;;22.86;53.86;102069.64;106917;1269;22624;-57
2023/09/19 00:53:14;;;;;;;5.90;5.30;;;;;;;22.84;53.94;102069.62;106681;1259;22539;-57
2023/09/19 00:55:42;;;;;;;9.60;5.60;;;;;;;22.84;54.02;102070.50;106685;1257;22531;-56
2023/09/19 00:58:10;;;;;;;5.80;4.90;;;;;;;22.77;53.96;102068.23;106775;1262;24465;-56
2023/09/19 01:00:40;;;;;;;5.40;4.90;;;;;;;22.64;54.01;102063.88;106620;1259;22584;-56
2023/09/19 01:03:09;;;;;;;6.30;5.70;;;;;;;22.63;53.90;102062.90;106469;1262;22524;-56
2023/09/19 01:05:37;;;;;;;6.00;5.40;;;;;;;22.62;53.84;102065.42;106790;1263;22533;-57
2023/09/19 01:08:06;;;;;;;6.10;5.30;;;;;;;22.61;53.89;102063.34;106642;1269;22522;-57
2023/09/19 01:10:34;;;;;;;5.70;5.10;;;;;;;22.60;53.91;102061.10;106725;1257;23906;-57
2023/09/19 01:13:19;;;;;;;6.20;5.40;;;;;;;22.58;53.92;102059.07;106514;1259;25288;-57
2023/09/19 01:15:55;;;;;;;7.40;5.60;;;;;;;22.58;53.97;102058.55;106788;1259;24246;-58
2023/09/19 01:18:23;;;;;;;8.10;6.30;;;;;;;22.57;54.10;102056.96;106830;1255;24384;-58
2023/09/19 01:21:11;;;;;;;11.00;7.20;;;;;;;22.55;54.43;102052.45;106689;1257;24249;-57
2023/09/19 01:24:23;;;;;;;7.60;6.20;;;;;;;22.55;54.70;102048.56;106443;1257;24209;-56
2023/09/19 01:27:07;;;;;;;7.90;7.10;;;;;;;22.56;55.02;102046.60;106495;1261;22526;-58
2023/09/19 01:29:39;;;;;;;9.00;6.90;;;;;;;22.56;55.27;102049.23;106781;1267;22554;-58
2023/09/19 01:32:09;;;;;;;7.40;6.70;;;;;;;22.57;55.52;102048.48;106779;1257;22580;-58
2023/09/19 01:34:52;;;;;;;8.30;6.80;;;;;;;22.58;55.76;102050.58;106579;1261;22526;-58
2023/09/19 01:37:31;;;;;;;9.80;6.80;;;;;;;22.59;56.06;102051.44;106797;1257;24221;-59
2023/09/19 01:40:08;;;;;;;8.30;7.30;;;;;;;22.60;56.23;102051.73;106963;1259;22526;-58
2023/09/19 01:42:48;;;;;;;8.50;6.70;;;;;;;22.61;56.51;102051.30;106629;1262;22543;-58
2023/09/19 01:45:33;;;;;;;11.10;7.60;;;;;;;22.62;56.79;102050.20;106737;1256;22583;-57
2023/09/19 01:48:42;;;;;;;7.90;7.20;;;;;;;22.63;56.99;102053.17;106788;1257;22660;-58
2023/09/19 01:51:10;;;;;;;9.50;7.40;;;;;;;22.63;56.99;102054.02;106691;1269;22532;-58
2023/09/19 01:53:52;;;;;;;8.30;7.50;;;;;;;22.65;57.03;102054.64;106739;1256;22631;-58
2023/09/19 01:56:24;;;;;;;9.80;7.70;;;;;;;22.66;57.13;102053.38;106741;1269;22563;-59
2023/09/19 01:58:54;;;;;;;8.30;7.30;;;;;;;22.67;57.21;102052.09;106521;1258;22529;-58
2023/09/19 02:01:22;;;;;;;8.10;7.30;;;;;;;22.68;57.27;102049.90;106714;1258;22534;-58
2023/09/19 02:03:50;;;;;;;7.80;7.00;;;;;;;22.70;57.27;102049.29;106702;1257;22602;-58
2023/09/19 02:06:21;;;;;;;8.20;7.50;;;;;;;22.71;57.37;102047.31;106645;1271;22520;-58
2023/09/19 02:08:49;;;;;;;8.20;7.30;;;;;;;22.72;57.34;102047.44;106832;1256;25229;-58
2023/09/19 02:11:16;;;;;;;7.50;6.80;;;;;;;22.71;57.34;102046.23;106649;1256;22553;-58
2023/09/19 02:13:44;;;;;;;10.10;7.50;;;;;;;22.71;57.53;102044.64;106611;1258;22534;-58
2023/09/19 02:16:12;;;;;;;9.30;8.20;;;;;;;22.71;57.50;102048.34;106571;1271;25292;-58
2023/09/19 02:18:40;;;;;;;8.50;7.60;;;;;;;22.71;57.48;102046.05;106433;1257;22527;-57
2023/09/19 02:21:09;;;;;;;7.90;7.20;;;;;;;22.71;57.62;102049.94;106772;1267;22531;-59
2023/09/19 02:23:38;;;;;;;8.10;7.30;;;;;;;22.71;57.61;102049.58;106658;1269;25315;-58
2023/09/19 02:26:07;;;;;;;8.70;7.80;;;;;;;22.72;57.69;102048.31;106779;1258;22521;-57
2023/09/19 02:28:35;;;;;;;11.10;7.30;;;;;;;22.76;57.55;102046.86;106595;1259;22789;-58
2023/09/19 02:31:06;;;;;;;7.90;7.20;;;;;;;22.76;57.48;102042.77;106783;1256;25234;-57
2023/09/19 02:33:35;;;;;;;8.00;7.30;;;;;;;22.76;57.37;102040.48;106718;1270;25356;-58
2023/09/19 02:36:03;;;;;;;7.70;6.90;;;;;;;22.78;57.39;102036.63;106643;1256;22533;-59
2023/09/19 02:38:31;;;;;;;8.00;7.30;;;;;;;22.89;57.10;102035.70;106385;1261;22526;-58
2023/09/19 02:40:59;;;;;;;8.50;7.60;;;;;;;22.91;57.06;102040.36;106477;1262;22527;-58
2023/09/19 02:43:27;;;;;;;8.60;7.40;;;;;;;22.91;57.03;102040.18;106706;1259;22525;-58
2023/09/19 02:45:56;;;;;;;8.30;7.60;;;;;;;22.92;56.98;102040.31;106501;1262;25378;-58
2023/09/19 02:48:25;;;;;;;9.10;8.20;;;;;;;22.91;57.21;102036.81;106498;1275;22648;-58
2023/09/19 02:50:53;;;;;;;8.10;7.30;;;;;;;22.91;57.12;102034.17;106444;1269;25412;-58
2023/09/19 02:53:21;;;;;;;15.20;7.50;;;;;;;22.92;57.12;102035.70;106751;1272;22545;-59
2023/09/19 02:55:49;;;;;;;8.50;7.50;;;;;;;22.91;57.16;102035.06;106688;1263;25322;-59
2023/09/19 02:58:18;;;;;;;8.70;7.20;;;;;;;22.91;57.20;102027.11;106582;1264;25233;-59
2023/09/19 03:00:47;;;;;;;9.70;7.50;;;;;;;22.90;57.09;102029.27;106454;1266;22572;-58
2023/09/19 03:03:18;;;;;;;10.20;8.90;;;;;;;22.89;57.06;102027.05;106777;1253;22549;-58
2023/09/19 03:05:47;;;;;;;13.90;12.60;;;;;;;22.88;57.15;102027.10;106781;1270;26669;-59
2023/09/19 03:08:17;;;;;;;11.00;9.90;;;;;;;22.87;56.92;102025.92;106572;1266;25304;-57
2023/09/19 03:10:47;;;;;;;11.00;9.40;;;;;;;22.85;57.04;102024.96;106691;1256;22534;-59
2023/09/19 03:13:16;;;;;;;8.70;7.90;;;;;;;22.85;56.95;102025.86;106635;1259;22530;-58
2023/09/19 03:15:46;;;;;;;8.80;7.90;;;;;;;22.84;56.84;102029.23;106781;1264;22535;-57
2023/09/19 03:18:16;;;;;;;9.10;7.50;;;;;;;22.84;56.81;102028.52;106409;1267;22557;-58
2023/09/19 03:20:54;;;;;;;7.40;6.70;;;;;;;22.82;56.88;102026.89;106761;1265;22989;-58
2023/09/19 03:23:23;;;;;;;7.50;6.80;;;;;;;22.65;57.38;102030.08;106490;1262;22631;-58
2023/09/19 03:25:52;;;;;;;9.20;7.20;;;;;;;22.60;57.70;102028.90;106393;1274;24360;-57
2023/09/19 03:28:23;;;;;;;8.60;7.30;;;;;;;22.58;57.97;102030.77;106480;1261;22524;-58
2023/09/19 03:31:01;;;;;;;;;;;;;;;22.57;58.36;102028.16;106833;1254;22509;-58
2023/09/19 03:33:33;;;;;;;8.90;7.70;;;;;;;22.55;58.73;102030.89;106709;1267;22529;-58
2023/09/19 03:36:04;;;;;;;8.10;7.00;;;;;;;22.55;59.00;102029.33;106636;1274;24225;-58
2023/09/19 03:38:34;;;;;;;8.40;6.80;;;;;;;22.54;59.30;102030.77;106612;1270;24268;-58
2023/09/19 03:41:02;;;;;;;9.10;7.10;;;;;;;22.55;59.44;102031.05;106718;1260;24055;-58
2023/09/19 03:43:32;;;;;;;10.70;6.40;;;;;;;22.56;59.62;102032.42;106685;1272;22563;-58
2023/09/19 03:46:04;;;;;;;6.40;5.80;;;;;;;22.59;59.80;102034.95;106796;1256;22621;-58
2023/09/19 03:48:33;;;;;;;5.60;5.10;;;;;;;22.63;59.91;102035.27;106695;1259;23887;-58
2023/09/19 03:51:02;;;;;;;10.90;5.10;;;;;;;22.69;59.93;102034.11;106599;1267;22625;-58
2023/09/19 03:53:29;;;;;;;5.90;5.10;;;;;;;22.75;59.75;102036.26;106500;1273;22526;-57
2023/09/19 03:55:59;;;;;;;6.00;5.10;;;;;;;22.82;59.77;102030.95;106587;1274;25231;-57
2023/09/19 03:58:28;;;;;;;7.70;5.20;;;;;;;22.90;59.82;102028.77;106450;1259;22543;-58
2023/09/19 04:00:57;;;;;;;5.50;5.00;;;;;;;22.97;59.73;102027.83;106699;1259;22530;-57
2023/09/19 04:03:34;;;;;;;6.60;5.40;;;;;;;23.05;59.47;102028.63;106667;1259;22542;-57
2023/09/19 04:06:03;;;;;;;6.10;5.00;;;;;;;23.13;58.93;102027.52;106569;1270;22526;-57
2023/09/19 04:08:30;;;;;;;6.10;5.60;;;;;;;23.20;58.69;102024.48;106447;1260;22534;-57
2023/09/19 04:10:58;;;;;;;5.20;4.70;;;;;;;23.28;58.51;102023.69;106461;1262;25366;-57
2023/09/19 04:13:26;;;;;;;6.00;4.90;;;;;;;23.35;58.13;102020.84;106702;1266;25249;-56
2023/09/19 04:15:54;;;;;;;5.50;4.80;;;;;;;23.42;57.82;102020.25;106819;1272;22530;-57
2023/09/19 04:18:23;;;;;;;5.40;4.90;;;;;;;23.49;57.48;102019.38;106603;1266;22523;-57
2023/09/19 04:20:51;;;;;;;6.30;5.20;;;;;;;23.55;57.20;102019.38;106687;1265;22710;-56
2023/09/19 04:23:22;;;;;;;5.30;4.40;;;;;;;23.62;57.03;102011.91;106380;1265;23901;-57
2023/09/19 04:25:50;;;;;;;4.80;4.30;;;;;;;23.67;56.88;102011.04;106439;1270;25451;-57
2023/09/19 04:28:18;;;;;;;4.70;4.20;;;;;;;23.72;56.61;102013.24;106710;1262;22534;-57
2023/09/19 04:30:46;;;;;;;4.90;4.40;;;;;;;23.77;56.45;102004.61;106813;1256;22627;-56
2023/09/19 04:33:14;;;;;;;5.10;4.70;;;;;;;23.83;56.34;102006.23;106328;1262;519185;-57
2023/09/19 04:35:45;;;;;;;5.80;4.40;;;;;;;23.89;56.30;102007.69;106444;1260;22529;-57
2023/09/19 04:38:13;;;;;;;5.70;4.70;;;;;;;24.06;55.78;102005.41;106395;1263;25262;-57
2023/09/19 04:40:41;;;;;;;4.70;4.20;;;;;;;24.16;55.51;102000.80;106662;1262;22535;-57
2023/09/19 04:43:09;;;;;;;5.30;4.40;;;;;;;24.19;55.32;101999.19;106746;1267;22528;-57
2023/09/19 04:45:38;;;;;;;4.90;4.40;;;;;;;24.17;54.99;102004.58;106615;1272;22530;-57
2023/09/19 04:48:06;;;;;;;5.20;4.30;;;;;;;24.23;54.57;102009.04;106765;1257;24189;-57
2023/09/19 04:50:34;;;;;;;5.30;4.60;;;;;;;24.37;54.26;102008.58;106757;1267;25434;-57
2023/09/19 04:53:03;;;;;;;4.60;4.20;;;;;;;24.40;54.53;102007.52;106690;1271;22541;-57
2023/09/19 04:55:32;;;;;;;6.90;4.30;;;;;;;24.45;53.98;102006.85;106684;1265;25383;-57
2023/09/19 04:58:00;;;;;;;6.90;4.50;;;;;;;24.53;53.73;102003.52;106778;1257;22535;-57
2023/09/19 05:00:30;;;;;;;5.60;4.20;;;;;;;24.58;53.55;102000.54;106704;1271;22524;-57
2023/09/19 05:02:58;;;;;;;5.50;4.90;;;;;;;24.63;53.48;101995.27;106675;1267;25240;-57
2023/09/19 05:05:26;;;;;;;4.50;4.10;;;;;;;24.68;53.56;101996.38;106381;1265;22530;-57
2023/09/19 05:07:55;;;;;;;5.50;4.10;;;;;;;24.73;53.62;101994.16;106645;1268;22509;-57
2023/09/19 05:10:23;;;;;;;5.90;4.60;;;;;;;24.77;53.17;101993.89;106841;1259;22525;-57
2023/09/19 05:12:55;;;;;;;5.30;4.10;;;;;;;24.81;52.76;101991.36;106839;1272;22590;-56
2023/09/19 05:15:22;;;;;;;4.20;3.80;;;;;;;24.85;52.36;101986.86;106757;1256;22524;-56
2023/09/19 05:17:51;;;;;;;4.70;4.30;;;;;;;24.90;52.33;101987.44;106727;1266;23080;-56
2023/09/19 05:20:29;;;;;;;5.90;3.80;;;;;;;24.94;52.16;101988.05;106750;1261;22543;-56
2023/09/19 05:23:01;;;;;;;4.10;3.70;;;;;;;24.98;51.78;101983.37;106736;1269;22516;-56
2023/09/19 05:25:31;;;;;;;4.80;4.10;;;;;;;25.02;51.73;101983.46;106820;1256;24194;-57
2023/09/19 05:27:59;;;;;;;4.30;3.90;;;;;;;25.06;51.73;101987.98;106821;1257;22576;-57
2023/09/19 05:30:29;;;;;;;4.60;3.90;;;;;;;25.10;51.17;101988.64;106534;1263;24249;-58
2023/09/19 05:32:58;;;;;;;3.80;3.50;;;;;;;25.15;51.11;101987.62;106755;1270;23002;-57
2023/09/19 05:35:26;;;;;;;6.60;4.40;;;;;;;25.19;51.07;101982.04;106929;1271;25353;-57
2023/09/19 05:37:55;;;;;;;4.50;4.10;;;;;;;25.23;51.21;101980.52;106658;1257;22992;-57
2023/09/19 05:40:23;;;;;;;5.60;4.00;;;;;;;25.27;51.04;101980.44;106603;1260;22527;-57
2023/09/19 05:42:51;;;;;;;4.70;4.30;;;;;;;25.30;50.89;101979.34;106447;1271;25327;-56
2023/09/19 05:45:22;;;;;;;4.80;4.30;;;;;;;25.32;51.04;101975.12;106804;1262;22531;-56
2023/09/19 05:47:51;;;;;;;;;;;;;;;25.36;51.10;101975.93;106771;1266;22511;-57
2023/09/19 05:50:19;;;;;;;4.70;4.10;;;;;;;25.45;50.80;101972.34;106741;1257;24212;-57
2023/09/19 05:52:54;;;;;;;8.20;4.90;;;;;;;25.56;50.55;101973.81;106644;1257;25335;-56
2023/09/19 05:55:24;;;;;;;6.20;5.60;;;;;;;25.65;50.48;101977.25;106806;1257;22536;-56
2023/09/19 05:57:53;;;;;;;7.70;5.80;;;;;;;25.72;50.41;101976.58;106793;1254;25275;-56
2023/09/19 06:00:22;;;;;;;5.70;5.00;;;;;;;25.79;50.21;101978.99;106901;1254;22526;-56
2023/09/19 06:02:52;;;;;;;9.00;5.80;;;;;;;25.83;50.09;101977.83;106626;1260;24261;-57
2023/09/19 06:05:20;;;;;;;8.40;5.40;;;;;;;25.88;50.46;101976.46;106700;1258;24200;-57
2023/09/19 06:07:48;;;;;;;6.50;5.40;;;;;;;25.93;50.60;101977.04;106543;1269;25361;-57
2023/09/19 06:10:17;;;;;;;10.80;5.80;;;;;;;25.97;50.46;101977.66;106431;1260;24231;-57
2023/09/19 06:12:45;;;;;;;7.90;6.40;;;;;;;26.02;50.13;101978.95;106656;1257;22561;-57
2023/09/19 06:15:18;;;;;;;6.80;5.40;;;;;;;26.06;49.63;101983.79;106403;1258;22528;-57
2023/09/19 06:17:48;;;;;;;8.90;5.10;;;;;;;26.11;49.64;101980.30;106672;1256;22544;-57
2023/09/19 06:20:19;;;;;;;11.20;4.70;;;;;;;26.15;49.34;101983.00;106401;1263;22637;-57
2023/09/19 06:22:47;;;;;;;;;;;;;;;26.22;49.45;101984.17;106725;1270;22505;-57
2023/09/19 06:25:19;;;;;;;8.70;6.30;;;;;;;26.27;49.05;101986.83;106723;1251;25370;-57
2023/09/19 06:27:52;;;;;;;6.30;4.90;;;;;;;26.32;49.10;101990.02;106769;1270;22607;-57
2023/09/19 06:30:20;;;;;;;7.50;5.10;;;;;;;26.38;49.40;101987.45;106671;1254;25229;-57
2023/09/19 06:32:48;;;;;;;6.10;4.90;;;;;;;26.45;49.28;101990.58;106646;1270;22530;-57
2023/09/19 06:35:16;;;;;;;6.10;5.30;;;;;;;26.50;49.08;101995.21;106735;1261;25230;-57
2023/09/19 06:37:43;;;;;;;5.90;5.30;;;;;;;26.54;48.56;101997.54;106513;1260;25322;-58
2023/09/19 06:40:16;;;;;;;7.20;5.80;;;;;;;26.60;48.21;101996.27;106764;1261;22531;-57
2023/09/19 06:42:49;;;;;;;7.90;5.30;;;;;;;26.65;48.39;102003.40;106464;1267;22534;-56
2023/09/19 06:45:21;;;;;;;8.70;5.30;;;;;;;26.69;48.05;102004.38;106784;1254;25206;-62
2023/09/19 06:47:50;;;;;;;6.50;5.60;;;;;;;26.74;48.27;102005.80;106709;1254;22505;-58
2023/09/19 06:50:22;;;;;;;9.30;5.90;;;;;;;26.81;48.42;102009.56;106907;1258;25233;-56
2023/09/19 06:52:51;;;;;;;6.20;5.00;;;;;;;26.91;48.02;102008.70;106743;1257;22522;-57
2023/09/19 06:55:20;;;;;;;6.30;4.60;;;;;;;27.03;47.36;102006.78;106544;1260;22530;-58
2023/09/19 06:57:48;;;;;;;7.20;5.90;;;;;;;27.16;47.00;102005.31;106873;1257;22534;-59
2023/09/19 07:00:18;;;;;;;5.50;5.00;;;;;;;27.28;46.65;102005.48;106730;1264;22530;-58
2023/09/19 07:03:05;;;;;;;7.40;5.50;;;;;;;27.41;46.49;102008.52;106706;1257;25394;-57
2023/09/19 07:05:33;;;;;;;7.90;4.90;;;;;;;27.52;46.20;102005.93;106869;1257;22530;-57
2023/09/19 07:08:02;;;;;;;8.80;5.50;;;;;;;27.61;45.65;102007.05;106889;1256;22570;-57
2023/09/19 07:10:30;;;;;;;6.00;4.70;;;;;;;27.68;45.29;102008.84;106437;1264;22533;-57
2023/09/19 07:13:02;;;;;;;5.80;4.30;;;;;;;27.70;45.14;102004.58;106637;1257;22533;-57
2023/09/19 07:15:35;;;;;;;6.50;5.40;;;;;;;27.68;45.18;102007.61;106680;1256;25335;-57
2023/09/19 07:18:04;;;;;;;10.40;7.80;;;;;;;27.77;44.73;102014.44;106691;1253;22560;-56
2023/09/19 07:20:32;;;;;;;9.90;7.10;;;;;;;27.90;44.51;102012.91;106754;1256;25328;-56
2023/09/19 07:23:00;;;;;;;10.50;8.10;;;;;;;27.99;44.77;102008.86;106320;1263;22525;-56
2023/09/19 07:25:28;;;;;;;8.70;6.90;;;;;;;28.05;44.49;102015.30;106661;1254;22534;-57
2023/09/19 07:27:59;;;;;;;8.80;6.00;;;;;;;28.08;44.39;102015.66;106806;1257;22531;-57
2023/09/19 07:30:28;;;;;;;5.30;4.80;;;;;;;28.08;44.00;102017.27;106742;1257;22530;-57
2023/09/19 07:32:57;;;;;;;11.20;5.80;;;;;;;28.06;44.34;102014.36;106670;1254;22603;-57
2023/09/19 07:35:25;;;;;;;6.90;5.90;;;;;;;28.04;44.69;102016.98;106658;1257;22575;-56
2023/09/19 07:37:53;;;;;;;8.40;5.80;;;;;;;28.03;44.45;102013.90;106819;1257;22561;-56
2023/09/19 07:40:21;;;;;;;6.10;4.90;;;;;;;28.02;44.46;102016.10;106691;1261;22541;-56
2023/09/19 07:42:50;;;;;;;6.70;4.60;;;;;;;28.01;44.26;102017.22;106819;1257;22549;-56
2023/09/19 07:45:18;;;;;;;7.70;4.70;;;;;;;28.01;44.53;102009.41;106815;1257;22531;-55
2023/09/19 07:47:46;;;;;;;5.90;4.90;;;;;;;28.00;44.44;102011.98;106830;1257;23002;-55
2023/09/19 07:50:16;;;;;;;4.50;3.60;;;;;;;28.00;44.34;102010.73;106859;1272;25385;-56
2023/09/19 07:52:45;;;;;;;5.90;4.50;;;;;;;28.00;44.34;102012.66;106883;1257;22539;-56
2023/09/19 07:55:16;;;;;;;7.90;4.90;;;;;;;28.01;44.31;102011.52;106568;1274;25350;-56
2023/09/19 07:57:44;;;;;;;5.40;4.70;;;;;;;28.15;44.03;102006.41;106718;1257;22628;-55
2023/09/19 08:00:12;;;;;;;5.70;5.00;;;;;;;28.22;44.30;102003.17;106962;1260;22532;-56
2023/09/19 08:02:41;;;;;;;9.60;5.00;;;;;;;28.28;44.45;102000.77;107044;1266;22527;-55
2023/09/19 08:05:10;;;;;;;5.50;5.00;;;;;;;28.13;44.64;101998.28;106778;1251;22582;-56
2023/09/19 08:07:39;;;;;;;5.20;4.80;;;;;;;28.08;44.46;101998.48;106715;1262;22538;-55
2023/09/19 08:10:15;;;;;;;5.40;4.60;;;;;;;28.07;44.55;101996.42;106844;1257;25450;-55
2023/09/19 08:12:46;;;;;;;5.40;4.90;;;;;;;28.07;44.56;101997.70;107039;1254;22547;-56
2023/09/19 08:15:21;;;;;;;9.10;5.40;;;;;;;28.07;44.45;101997.86;106501;1251;22571;-55
2023/09/19 08:17:50;;;;;;;7.80;5.50;;;;;;;28.06;44.50;101995.24;107072;1254;24209;-55
2023/09/19 08:20:21;;;;;;;7.20;5.00;;;;;;;28.06;44.63;101992.98;106454;1273;23861;-55
2023/09/19 08:22:54;;;;;;;5.40;4.60;;;;;;;28.06;44.70;101988.15;106585;1257;24240;-56
2023/09/19 08:25:25;;;;;;;6.60;4.90;;;;;;;28.07;44.70;101985.20;106747;1254;22556;-55
2023/09/19 08:27:53;;;;;;;5.80;4.90;;;;;;;27.97;45.20;101985.77;106827;1253;25347;-56
2023/09/19 08:30:23;;;;;;;5.90;5.10;;;;;;;27.91;45.49;101988.02;106671;1274;25391;-55
2023/09/19 08:32:59;;;;;;;5.20;4.40;;;;;;;27.95;45.53;101986.50;106868;1269;25338;-56
2023/09/19 08:35:27;;;;;;;5.30;4.50;;;;;;;28.00;45.28;101985.23;106847;1270;23018;-56
2023/09/19 08:38:00;;;;;;;5.80;4.10;;;;;;;28.05;45.24;101984.10;106812;1257;24229;-56
2023/09/19 08:40:28;;;;;;;8.70;4.10;;;;;;;28.10;45.32;101981.97;106707;1253;22537;-56
2023/09/19 08:42:58;;;;;;;6.20;4.60;;;;;;;28.14;45.51;101977.89;106666;1260;25355;-56
2023/09/19 08:45:28;;;;;;;5.30;4.40;;;;;;;28.18;45.63;101978.68;106790;1269;25409;-54
2023/09/19 08:48:13;;;;;;;5.80;4.00;;;;;;;28.21;45.98;101973.77;106702;1257;22646;-55
2023/09/19 08:50:47;;;;;;;5.40;4.50;;;;;;;28.23;45.73;101969.86;106818;1257;24067;-55
2023/09/19 08:53:20;;;;;;;6.70;4.50;;;;;;;28.26;45.75;101970.55;106706;1254;22587;-55
2023/09/19 08:55:48;;;;;;;6.00;4.40;;;;;;;28.30;45.58;101971.87;106796;1259;22524;-55
2023/09/19 08:58:19;;;;;;;8.40;3.90;;;;;;;28.32;45.65;101972.06;106693;1270;22527;-55
2023/09/19 09:00:49;;;;;;;6.30;4.40;;;;;;;28.33;45.33;101969.30;106736;1252;22527;-55
2023/09/19 09:03:19;;;;;;;7.10;4.20;;;;;;;28.33;45.41;101965.00;106767;1273;22627;-55
2023/09/19 09:05:47;;;;;;;6.10;4.20;;;;;;;28.35;45.39;101960.42;107010;1253;22526;-56
2023/09/19 09:08:16;;;;;;;5.90;4.90;;;;;;;28.37;45.47;101953.13;106828;1270;23924;-55
2023/09/19 09:10:44;;;;;;;5.00;4.50;;;;;;;28.38;45.38;101954.79;106747;1269;24375;-55
2023/09/19 09:13:14;;;;;;;5.00;4.50;;;;;;;28.40;45.23;101952.89;106800;1269;22569;-56
2023/09/19 09:15:41;;;;;;;7.70;4.30;;;;;;;28.41;44.77;101953.14;106409;1255;22538;-56
2023/09/19 09:18:09;;;;;;;6.50;4.80;;;;;;;28.42;44.82;101957.14;106500;1260;22546;-56
2023/09/19 09:20:37;;;;;;;5.70;4.60;;;;;;;28.44;45.15;101961.10;106681;1269;22605;-55
2023/09/19 09:23:06;;;;;;;9.40;4.60;;;;;;;28.48;45.43;101961.29;106466;1275;22559;-55
2023/09/19 09:25:56;;;;;;;4.90;4.40;;;;;;;28.54;45.15;101962.81;106936;1257;22527;-55
2023/09/19 09:28:26;;;;;;;6.20;4.50;;;;;;;28.59;44.97;101962.42;107091;1257;22537;-55
2023/09/19 09:30:54;;;;;;;6.10;5.00;;;;;;;28.64;45.14;101956.51;106962;1256;22530;-55
2023/09/19 09:33:23;;;;;;;5.20;4.70;;;;;;;28.68;44.90;101950.28;106831;1269;22656;-55
2023/09/19 09:35:57;;;;;;;7.00;5.00;;;;;;;28.71;44.68;101950.58;106732;1269;24047;-54
2023/09/19 09:38:32;;;;;;;6.60;5.10;;;;;;;28.74;44.70;101952.52;106957;1269;22533;-54
2023/09/19 09:41:06;;;;;;;5.30;4.60;;;;;;;28.76;44.79;101948.23;106639;1264;22604;-55
2023/09/19 09:43:36;;;;;;;4.70;4.20;;;;;;;28.79;44.52;101953.14;106786;1269;22170;-55
2023/09/19 09:49:19;;;;;;;6.40;4.50;;;;;;;28.88;44.39;101953.84;106977;1257;22779;-55
2023/09/19 09:51:59;;;;;;;5.60;5.10;;;;;;;28.92;44.49;101959.42;106752;1261;23918;-55
2023/09/19 09:58:18;;;;;;;9.00;4.50;;;;;;;29.04;44.24;101951.19;107051;1261;23898;-55
2023/09/19 10:01:01;;;;;;;6.60;4.50;;;;;;;29.09;44.23;101950.11;107301;1260;24273;-55
2023/09/19 10:03:40;;;;;;;6.30;4.50;;;;;;;29.13;44.29;101947.60;107011;1267;24290;-55
2023/09/19 10:09:16;;;;;;;7.40;4.40;;;;;;;29.24;44.16;101936.69;106692;1273;24339;-55
2023/09/19 10:15:10;;;;;;;4.50;4.10;;;;;;;29.40;43.70;101934.14;103715;1299;545035;-56
2023/09/19 10:17:38;;;;;;;5.00;4.30;;;;;;;29.43;43.17;101929.96;106275;1272;25364;-55
2023/09/19 10:20:09;;;;;;;6.20;4.40;;;;;;;29.44;43.32;101924.46;106280;1285;22576;-55
2023/09/19 10:22:37;;;;;;;5.30;4.40;;;;;;;29.43;43.32;101923.65;106062;1276;22563;-55
2023/09/19 10:25:07;;;;;;;8.90;4.60;;;;;;;29.44;43.28;101921.11;105873;1281;22558;-55
2023/09/19 10:27:37;;;;;;;5.30;4.00;;;;;;;29.43;43.03;101920.08;105734;1289;22544;-55
2023/09/19 10:30:07;;;;;;;4.70;3.70;;;;;;;29.40;43.10;101919.59;106588;1266;23862;-55
2023/09/19 10:32:35;;;;;;;7.50;4.10;;;;;;;29.37;42.70;101913.25;107013;1263;22522;-55
2023/09/19 10:35:04;;;;;;;4.20;3.80;;;;;;;29.36;42.29;101910.48;106699;1259;22562;-56
2023/09/19 10:37:32;;;;;;;8.00;4.60;;;;;;;29.36;42.56;101907.06;106839;1272;25338;-58
2023/09/19 10:40:00;;;;;;;6.60;4.00;;;;;;;29.36;42.84;101901.77;106621;1270;22523;-57
2023/09/19 10:42:28;;;;;;;5.90;4.10;;;;;;;29.33;42.64;101901.96;106826;1269;22533;-57
2023/09/19 10:44:59;;;;;;;6.20;4.50;;;;;;;29.31;42.74;101896.60;106830;1269;22523;-56
2023/09/19 10:47:27;;;;;;;6.90;4.60;;;;;;;29.32;42.61;101895.51;106551;1272;25281;-56
2023/09/19 10:49:55;;;;;;;8.80;4.10;;;;;;;29.31;41.83;101894.45;106754;1257;25363;-56
2023/09/19 10:52:24;;;;;;;4.50;4.10;;;;;;;29.29;41.88;101893.36;106589;1269;22535;-55
2023/09/19 10:54:57;;;;;;;5.70;4.30;;;;;;;29.28;42.48;101897.19;106679;1257;22530;-55
2023/09/19 10:57:27;;;;;;;6.20;3.60;;;;;;;29.28;41.73;101896.85;106679;1256;25301;-56
2023/09/19 11:00:23;;;;;;;3.90;3.50;;;;;;;29.28;41.29;101900.10;106689;1270;25747;-55
2023/09/19 11:03:14;;;;;;;6.00;3.70;;;;;;;29.30;41.31;101904.73;106676;1269;25363;-56
2023/09/19 11:05:43;;;;;;;5.20;3.30;;;;;;;29.33;41.39;101900.89;106661;1269;24197;-55
2023/09/19 11:08:12;;;;;;;3.70;3.30;;;;;;;29.36;41.05;101905.31;106573;1269;25366;-55
2023/09/19 11:10:47;;;;;;;5.40;3.20;;;;;;;29.38;40.99;101902.97;106664;1261;24466;-55
2023/09/19 11:13:30;;;;;;;4.60;3.60;;;;;;;29.42;40.69;101901.42;106660;1274;23940;-55
2023/09/19 11:16:00;;;;;;;5.50;3.20;;;;;;;29.45;40.49;101897.98;106568;1268;24370;-57
2023/09/19 11:18:40;;;;;;;3.30;3.00;;;;;;;29.46;40.90;101898.70;106651;1255;24209;-56
2023/09/19 11:21:33;;;;;;;4.40;3.30;;;;;;;29.49;40.65;101891.75;106651;1259;24243;-55
2023/09/19 11:24:22;;;;;;;4.10;3.70;;;;;;;29.51;40.82;101892.10;106634;1269;22614;-56
2023/09/19 11:26:51;;;;;;;9.10;3.70;;;;;;;29.54;40.88;101892.02;106335;1269;22647;-56
2023/09/19 11:29:30;;;;;;;4.60;3.80;;;;;;;29.56;40.72;101889.10;106637;1270;24335;-56
2023/09/19 11:32:01;;;;;;;4.00;3.60;;;;;;;29.59;40.22;101883.01;106683;1269;22541;-57
2023/09/19 11:34:36;;;;;;;;;;;;;;;29.60;39.97;101881.45;106603;1274;22774;-55
2023/09/19 11:37:11;;;;;;;3.90;3.50;;;;;;;29.61;39.98;101883.00;106385;1257;22527;-55
2023/09/19 11:40:19;;;;;;;4.10;3.70;;;;;;;29.62;39.59;101876.64;106646;1269;22553;-55
2023/09/19 11:42:53;;;;;;;5.50;3.60;;;;;;;29.64;39.45;101877.88;106148;1278;24219;-55
2023/09/19 11:45:46;;;;;;;6.00;3.70;;;;;;;29.66;39.86;101878.60;106225;1276;22649;-56
2023/09/19 11:48:15;;;;;;;6.50;3.30;;;;;;;29.68;39.86;101869.70;105900;1280;25493;-55